createdAt,value
2018-03-12T00:00:14.462Z,7.78
2018-03-12T00:01:17.018Z,6.45
2018-03-12T00:02:20.328Z,10.82
2018-03-12T00:03:22.848Z,5.30
2018-03-12T00:04:25.398Z,8.57
2018-03-12T00:05:28.688Z,5.45
2018-03-12T00:06:31.293Z,5.35
2018-03-12T00:07:34.609Z,8.52
2018-03-12T00:08:37.165Z,6.47
2018-03-12T00:09:39.678Z,9.55
2018-03-12T00:10:42.242Z,9.55
2018-03-12T00:11:44.849Z,13.15
2018-03-12T00:12:47.374Z,6.45
2018-03-12T00:13:49.894Z,7.40
2018-03-12T00:14:52.434Z,10.02
2018-03-12T00:15:55.785Z,12.70
2018-03-12T00:16:58.353Z,18.77
2018-03-12T00:18:00.887Z,7.53
2018-03-12T00:19:03.412Z,7.90
2018-03-12T00:20:06.869Z,7.97
2018-03-12T00:21:09.400Z,9.57
2018-03-12T00:22:11.973Z,8.48
2018-03-12T00:23:14.526Z,7.00
2018-03-12T00:24:17.062Z,10.88
2018-03-12T00:25:19.586Z,7.55
2018-03-12T00:26:22.120Z,7.57
2018-03-12T00:27:24.673Z,7.62
2018-03-12T00:28:27.975Z,9.55
2018-03-12T00:29:30.530Z,8.73
2018-03-12T00:30:33.872Z,8.02
2018-03-12T00:32:45.333Z,7.22
2018-03-12T00:33:47.858Z,11.50
2018-03-12T00:34:51.217Z,13.38
2018-03-12T00:35:53.736Z,8.93
2018-03-12T00:36:56.264Z,11.68
2018-03-12T00:37:59.559Z,11.35
2018-03-12T00:39:02.881Z,6.90
2018-03-12T00:40:05.410Z,7.50
2018-03-12T00:41:08.780Z,8.40
2018-03-12T00:42:12.038Z,7.72
2018-03-12T00:43:14.566Z,6.75
2018-03-12T00:44:17.085Z,7.00
2018-03-12T00:45:19.642Z,7.40
2018-03-12T00:46:22.158Z,8.02
2018-03-12T00:47:24.732Z,6.18
2018-03-12T00:48:27.409Z,6.18
2018-03-12T00:49:29.959Z,7.70
2018-03-12T00:50:32.480Z,5.90
2018-03-12T00:51:35.000Z,5.25
2018-03-12T00:52:37.556Z,8.50
2018-03-12T00:53:40.076Z,5.28
2018-03-12T00:54:42.599Z,5.20
2018-03-12T00:55:45.121Z,6.55
2018-03-12T00:56:47.650Z,7.45
2018-03-12T00:57:50.201Z,6.60
2018-03-12T00:58:52.748Z,13.45
2018-03-12T00:59:55.275Z,6.10
2018-03-12T01:00:57.797Z,6.28
2018-03-12T01:02:00.322Z,8.68
2018-03-12T01:03:03.645Z,10.68
2018-03-12T01:04:06.169Z,5.10
2018-03-12T01:05:08.709Z,5.22
2018-03-12T01:06:11.262Z,9.52
2018-03-12T01:07:13.811Z,6.60
2018-03-12T01:08:16.337Z,6.00
2018-03-12T01:09:25.352Z,5.80
2018-03-12T01:10:28.882Z,7.90
2018-03-12T01:11:31.415Z,5.20
2018-03-12T01:12:34.705Z,6.12
2018-03-12T01:13:38.049Z,9.32
2018-03-12T01:14:40.576Z,6.05
2018-03-12T01:15:43.101Z,7.78
2018-03-12T01:16:45.615Z,5.68
2018-03-12T01:17:48.145Z,5.65
2018-03-12T01:18:51.479Z,6.62
2018-03-12T01:19:53.997Z,6.40
2018-03-12T01:20:57.286Z,7.55
2018-03-12T01:22:00.576Z,7.50
2018-03-12T01:23:03.865Z,5.72
2018-03-12T01:24:07.208Z,5.15
2018-03-12T01:25:09.770Z,5.57
2018-03-12T01:26:12.294Z,8.68
2018-03-12T01:27:14.805Z,4.95
2018-03-12T01:28:17.329Z,5.62
2018-03-12T01:29:19.893Z,5.85
2018-03-12T01:30:22.412Z,5.18
2018-03-12T01:31:24.966Z,5.87
2018-03-12T01:32:28.263Z,5.78
2018-03-12T01:33:30.792Z,13.10
2018-03-12T01:34:33.320Z,5.40
2018-03-12T01:35:36.605Z,8.13
2018-03-12T01:36:39.938Z,6.18
2018-03-12T01:37:42.465Z,6.70
2018-03-12T01:38:45.021Z,8.15
2018-03-12T01:39:48.315Z,8.18
2018-03-12T01:40:50.837Z,12.75
2018-03-12T01:41:53.396Z,10.25
2018-03-12T01:42:55.929Z,9.55
2018-03-12T01:43:58.440Z,6.47
2018-03-12T01:45:00.972Z,6.57
2018-03-12T01:46:03.497Z,5.75
2018-03-12T01:47:06.867Z,14.75
2018-03-12T01:48:09.381Z,7.93
2018-03-12T01:49:11.904Z,7.82
2018-03-12T01:50:14.458Z,11.38
2018-03-12T01:51:16.981Z,7.22
2018-03-12T01:52:19.496Z,9.25
2018-03-12T01:53:22.054Z,8.70
2018-03-12T01:54:24.587Z,12.45
2018-03-12T01:55:27.113Z,6.62
2018-03-12T01:56:30.459Z,12.37
2018-03-12T01:57:32.942Z,6.65
2018-03-12T01:58:35.497Z,7.45
2018-03-12T01:59:38.015Z,9.88
2018-03-12T02:00:40.550Z,8.25
2018-03-12T02:01:43.105Z,8.13
2018-03-12T02:02:45.626Z,10.07
2018-03-12T02:03:48.141Z,8.32
2018-03-12T02:04:50.675Z,7.05
2018-03-12T02:05:53.193Z,8.88
2018-03-12T02:06:56.508Z,6.50
2018-03-12T02:07:59.055Z,9.43
2018-03-12T02:09:01.582Z,5.87
2018-03-12T02:10:04.097Z,10.70
2018-03-12T02:11:06.617Z,5.95
2018-03-12T02:12:09.171Z,5.62
2018-03-12T02:13:11.743Z,5.80
2018-03-12T02:14:14.266Z,6.07
2018-03-12T02:15:16.797Z,5.97
2018-03-12T02:16:20.084Z,7.40
2018-03-12T02:17:23.364Z,5.75
2018-03-12T02:18:26.684Z,7.15
2018-03-12T02:19:29.201Z,5.70
2018-03-12T02:20:31.865Z,7.85
2018-03-12T02:21:34.394Z,6.03
2018-03-12T02:22:36.926Z,9.60
2018-03-12T02:23:39.628Z,6.15
2018-03-12T02:24:42.184Z,8.32
2018-03-12T02:25:44.697Z,8.30
2018-03-12T02:26:47.228Z,6.00
2018-03-12T02:27:49.772Z,8.18
2018-03-12T02:28:52.289Z,8.80
2018-03-12T02:29:54.846Z,10.73
2018-03-12T02:30:57.373Z,9.27
2018-03-12T02:31:59.898Z,8.45
2018-03-12T02:33:02.427Z,12.05
2018-03-12T02:34:04.966Z,14.13
2018-03-12T02:35:07.523Z,11.40
2018-03-12T02:36:10.843Z,10.90
2018-03-12T02:37:13.359Z,9.10
2018-03-12T02:38:16.033Z,12.55
2018-03-12T02:39:19.321Z,9.20
2018-03-12T02:40:22.651Z,8.85
2018-03-12T02:41:25.220Z,7.87
2018-03-12T02:42:27.748Z,15.15
2018-03-12T02:43:30.276Z,9.95
2018-03-12T02:44:32.939Z,16.17
2018-03-12T02:45:35.466Z,9.77
2018-03-12T02:46:38.021Z,8.73
2018-03-12T02:47:40.564Z,10.32
2018-03-12T02:48:43.849Z,11.32
2018-03-12T02:49:47.181Z,12.00
2018-03-12T02:50:49.708Z,10.63
2018-03-12T02:51:53.008Z,10.35
2018-03-12T02:52:55.533Z,7.47
2018-03-12T02:53:58.064Z,10.65
2018-03-12T02:55:00.623Z,7.30
2018-03-12T02:56:03.153Z,6.82
2018-03-12T02:57:06.466Z,8.77
2018-03-12T02:58:08.981Z,8.20
2018-03-12T02:59:11.530Z,9.93
2018-03-12T03:00:14.089Z,8.82
2018-03-12T03:01:16.605Z,7.82
2018-03-12T03:02:19.930Z,9.48
2018-03-12T03:03:22.460Z,8.38
2018-03-12T03:04:25.747Z,8.50
2018-03-12T03:05:28.278Z,10.40
2018-03-12T03:06:30.798Z,7.20
2018-03-12T03:07:33.365Z,7.53
2018-03-12T03:08:35.889Z,9.20
2018-03-12T03:09:38.406Z,9.00
2018-03-12T03:10:40.928Z,8.43
2018-03-12T03:11:44.222Z,8.15
2018-03-12T03:12:47.540Z,8.70
2018-03-12T03:13:50.105Z,7.18
2018-03-12T03:14:52.633Z,10.40
2018-03-12T03:15:55.936Z,9.15
2018-03-12T03:16:58.463Z,6.87
2018-03-12T03:18:00.985Z,7.85
2018-03-12T03:19:03.551Z,9.13
2018-03-12T03:20:06.077Z,7.40
2018-03-12T03:21:09.365Z,7.30
2018-03-12T03:22:12.650Z,6.93
2018-03-12T03:23:15.938Z,7.53
2018-03-12T03:24:19.270Z,8.65
2018-03-12T03:25:21.789Z,8.75
2018-03-12T03:26:25.070Z,6.97
2018-03-12T03:27:28.361Z,7.75
2018-03-12T03:28:30.889Z,7.55
2018-03-12T03:29:33.457Z,7.55
2018-03-12T03:30:36.909Z,14.18
2018-03-12T03:31:39.512Z,9.38
2018-03-12T03:33:51.185Z,8.27
2018-03-12T03:34:53.748Z,7.50
2018-03-12T03:35:56.260Z,7.78
2018-03-12T03:36:59.549Z,8.80
2018-03-12T03:38:02.825Z,8.10
2018-03-12T03:39:06.110Z,7.55
2018-03-12T03:40:09.434Z,7.50
2018-03-12T03:41:11.956Z,10.80
2018-03-12T03:42:15.237Z,9.35
2018-03-12T03:43:18.517Z,8.00
2018-03-12T03:44:21.793Z,7.60
2018-03-12T03:45:24.441Z,9.45
2018-03-12T03:46:26.953Z,9.82
2018-03-12T03:47:29.472Z,9.70
2018-03-12T03:48:31.994Z,6.62
2018-03-12T03:49:34.521Z,10.77
2018-03-12T03:50:37.193Z,9.27
2018-03-12T03:51:39.721Z,7.70
2018-03-12T03:52:42.288Z,7.90
2018-03-12T03:53:44.805Z,8.40
2018-03-12T03:54:48.096Z,7.50
2018-03-12T03:55:51.420Z,10.18
2018-03-12T03:56:53.982Z,12.02
2018-03-12T03:57:56.498Z,9.20
2018-03-12T03:58:59.817Z,7.40
2018-03-12T04:00:02.334Z,8.15
2018-03-12T04:01:04.859Z,8.68
2018-03-12T04:02:07.383Z,8.52
2018-03-12T04:03:10.672Z,10.18
2018-03-12T04:04:14.007Z,8.50
2018-03-12T04:05:16.533Z,13.98
2018-03-12T04:06:19.061Z,11.32
2018-03-12T04:07:21.579Z,7.95
2018-03-12T04:08:24.096Z,9.98
2018-03-12T04:09:26.645Z,7.90
2018-03-12T04:10:29.205Z,8.57
2018-03-12T04:11:31.734Z,12.70
2018-03-12T04:12:34.289Z,7.75
2018-03-12T04:13:37.581Z,11.95
2018-03-12T04:14:40.116Z,7.65
2018-03-12T04:15:42.634Z,11.50
2018-03-12T04:16:45.150Z,9.23
2018-03-12T04:17:47.714Z,8.23
2018-03-12T04:18:50.225Z,7.82
2018-03-12T04:19:52.748Z,11.52
2018-03-12T04:20:55.269Z,11.02
2018-03-12T04:21:57.793Z,11.25
2018-03-12T04:23:01.113Z,11.50
2018-03-12T04:24:03.641Z,13.75
2018-03-12T04:25:06.938Z,13.82
2018-03-12T04:26:10.227Z,9.70
2018-03-12T04:27:12.745Z,8.57
2018-03-12T04:28:15.297Z,10.52
2018-03-12T04:29:17.848Z,11.50
2018-03-12T04:30:20.365Z,9.38
2018-03-12T04:31:22.890Z,8.98
2018-03-12T04:32:25.413Z,8.70
2018-03-12T04:33:28.702Z,8.77
2018-03-12T04:34:32.046Z,10.07
2018-03-12T04:35:34.573Z,13.60
2018-03-12T04:36:37.088Z,9.63
2018-03-12T04:37:39.606Z,13.82
2018-03-12T04:38:42.134Z,10.98
2018-03-12T04:39:45.478Z,11.68
2018-03-12T04:40:48.004Z,15.80
2018-03-12T04:41:51.359Z,16.37
2018-03-12T04:42:53.881Z,9.15
2018-03-12T04:43:56.461Z,14.32
2018-03-12T04:44:59.013Z,12.50
2018-03-12T04:46:01.538Z,13.75
2018-03-12T04:47:04.827Z,13.60
2018-03-12T04:48:08.116Z,16.37
2018-03-12T04:49:11.413Z,16.77
2018-03-12T04:50:13.964Z,13.32
2018-03-12T04:51:17.253Z,13.77
2018-03-12T04:52:20.569Z,27.30
2018-03-12T04:53:23.096Z,19.92
2018-03-12T04:54:26.416Z,16.85
2018-03-12T04:55:28.943Z,18.33
2018-03-12T04:56:32.229Z,14.35
2018-03-12T04:57:35.553Z,12.20
2018-03-12T04:58:38.078Z,23.08
2018-03-12T04:59:41.362Z,17.00
2018-03-12T05:00:44.665Z,16.00
2018-03-12T05:01:47.185Z,23.08
2018-03-12T05:02:49.752Z,21.00
2018-03-12T05:03:52.321Z,21.73
2018-03-12T05:04:54.851Z,18.87
2018-03-12T05:05:57.383Z,20.35
2018-03-12T05:07:00.693Z,21.92
2018-03-12T05:08:03.213Z,30.00
2018-03-12T05:09:05.778Z,19.55
2018-03-12T05:10:08.298Z,17.60
2018-03-12T05:11:10.830Z,19.05
2018-03-12T05:12:14.113Z,26.77
2018-03-12T05:13:17.405Z,35.30
2018-03-12T05:14:20.733Z,19.37
2018-03-12T05:15:23.248Z,20.77
2018-03-12T05:16:26.529Z,23.40
2018-03-12T05:17:29.821Z,18.73
2018-03-12T05:18:33.110Z,21.15
2018-03-12T05:19:35.677Z,22.87
2018-03-12T05:20:38.201Z,24.33
2018-03-12T05:21:40.734Z,20.88
2018-03-12T05:22:43.275Z,19.20
2018-03-12T05:23:45.803Z,23.12
2018-03-12T05:24:49.163Z,18.90
2018-03-12T05:25:51.706Z,21.90
2018-03-12T05:26:54.231Z,19.23
2018-03-12T05:27:57.535Z,23.00
2018-03-12T05:29:00.202Z,21.52
2018-03-12T05:30:03.523Z,19.67
2018-03-12T05:31:06.043Z,20.80
2018-03-12T05:32:09.333Z,23.60
2018-03-12T05:33:12.636Z,21.87
2018-03-12T05:34:15.166Z,24.10
2018-03-12T05:35:17.733Z,26.90
2018-03-12T05:36:20.264Z,25.00
2018-03-12T05:37:22.785Z,21.95
2018-03-12T05:38:26.082Z,26.85
2018-03-12T05:39:28.609Z,23.27
2018-03-12T05:40:31.165Z,18.92
2018-03-12T05:41:33.721Z,19.90
2018-03-12T05:42:36.250Z,18.77
2018-03-12T05:43:38.778Z,20.58
2018-03-12T05:44:41.309Z,17.70
2018-03-12T05:45:43.872Z,32.38
2018-03-12T05:46:46.402Z,22.42
2018-03-12T05:47:49.695Z,16.85
2018-03-12T05:48:52.220Z,22.60
2018-03-12T05:49:54.741Z,26.12
2018-03-12T05:50:57.305Z,19.48
2018-03-12T05:51:59.820Z,27.00
2018-03-12T05:53:02.347Z,21.90
2018-03-12T05:54:04.870Z,21.75
2018-03-12T05:55:08.157Z,20.65
2018-03-12T05:56:11.487Z,30.00
2018-03-12T05:57:14.040Z,17.55
2018-03-12T05:58:16.558Z,24.45
2018-03-12T05:59:19.076Z,26.75
2018-03-12T06:00:21.601Z,22.75
2018-03-12T06:01:24.889Z,23.27
2018-03-12T06:02:28.213Z,19.23
2018-03-12T06:03:30.785Z,17.17
2018-03-12T06:04:33.305Z,20.58
2018-03-12T06:05:36.589Z,23.62
2018-03-12T06:06:39.873Z,21.42
2018-03-12T06:07:43.151Z,16.50
2018-03-12T06:08:46.469Z,19.20
2018-03-12T06:09:49.012Z,21.83
2018-03-12T06:10:52.289Z,23.65
2018-03-12T06:11:55.583Z,23.90
2018-03-12T06:12:58.873Z,19.23
2018-03-12T06:14:01.446Z,15.05
2018-03-12T06:15:03.969Z,23.10
2018-03-12T06:16:06.493Z,27.33
2018-03-12T06:17:09.027Z,22.83
2018-03-12T06:18:12.314Z,19.35
2018-03-12T06:19:14.877Z,31.40
2018-03-12T06:20:18.173Z,21.10
2018-03-12T06:21:20.706Z,23.45
2018-03-12T06:22:23.270Z,15.75
2018-03-12T06:23:25.801Z,24.98
2018-03-12T06:24:28.326Z,23.15
2018-03-12T06:25:30.858Z,25.77
2018-03-12T06:26:33.386Z,19.75
2018-03-12T06:27:35.945Z,29.52
2018-03-12T06:28:38.473Z,27.52
2018-03-12T06:29:41.776Z,26.92
2018-03-12T06:30:45.111Z,20.80
2018-03-12T06:31:47.634Z,26.25
2018-03-12T06:32:50.201Z,18.83
2018-03-12T06:33:52.720Z,26.73
2018-03-12T06:34:55.253Z,28.40
2018-03-12T06:35:57.811Z,35.50
2018-03-12T06:37:00.333Z,29.83
2018-03-12T06:38:02.881Z,37.03
2018-03-12T06:39:05.420Z,29.42
2018-03-12T06:40:07.940Z,21.87
2018-03-12T06:41:11.281Z,25.98
2018-03-12T06:42:13.807Z,23.80
2018-03-12T06:43:17.106Z,26.37
2018-03-12T06:44:19.626Z,29.98
2018-03-12T06:45:22.155Z,24.65
2018-03-12T06:46:24.746Z,29.20
2018-03-12T06:47:27.276Z,18.83
2018-03-12T06:48:29.810Z,36.88
2018-03-12T06:49:33.102Z,22.95
2018-03-12T06:50:36.406Z,29.70
2018-03-12T06:51:38.984Z,33.75
2018-03-12T06:52:41.525Z,25.15
2018-03-12T06:53:44.812Z,39.08
2018-03-12T06:54:47.329Z,24.75
2018-03-12T06:55:49.851Z,19.87
2018-03-12T06:56:53.193Z,22.87
2018-03-12T06:57:55.708Z,24.02
2018-03-12T06:58:58.244Z,25.50
2018-03-12T07:00:01.548Z,34.47
2018-03-12T07:01:04.073Z,28.55
2018-03-12T07:02:06.634Z,26.33
2018-03-12T07:03:09.173Z,28.35
2018-03-12T07:04:11.716Z,24.58
2018-03-12T07:05:14.274Z,19.30
2018-03-12T07:06:16.801Z,23.83
2018-03-12T07:07:19.317Z,23.20
2018-03-12T07:08:21.894Z,22.50
2018-03-12T07:09:24.426Z,23.92
2018-03-12T07:10:27.761Z,21.67
2018-03-12T07:11:30.306Z,24.20
2018-03-12T07:12:32.833Z,27.08
2018-03-12T07:13:35.357Z,23.70
2018-03-12T07:14:37.886Z,21.35
2018-03-12T07:15:41.204Z,29.00
2018-03-12T07:16:43.728Z,27.83
2018-03-12T07:17:47.048Z,29.90
2018-03-12T07:18:49.591Z,26.87
2018-03-12T07:19:52.124Z,28.42
2018-03-12T07:20:54.681Z,28.48
2018-03-12T07:21:57.209Z,34.17
2018-03-12T07:22:59.737Z,26.17
2018-03-12T07:24:03.034Z,23.65
2018-03-12T07:25:06.375Z,41.95
2018-03-12T07:26:08.894Z,33.40
2018-03-12T07:27:11.425Z,31.08
2018-03-12T07:28:13.989Z,29.55
2018-03-12T07:29:16.509Z,30.40
2018-03-12T07:30:19.034Z,32.35
2018-03-12T07:31:22.385Z,49.55
2018-03-12T07:32:24.963Z,39.97
2018-03-12T07:33:27.488Z,50.40
2018-03-12T07:34:30.029Z,38.65
2018-03-12T07:35:33.321Z,49.33
2018-03-12T07:36:35.877Z,41.33
2018-03-12T07:37:39.187Z,42.83
2018-03-12T07:38:41.710Z,37.38
2018-03-12T07:39:45.008Z,65.20
2018-03-12T07:40:48.399Z,58.08
2018-03-12T07:41:51.694Z,44.38
2018-03-12T07:42:54.342Z,41.10
2018-03-12T07:43:57.666Z,38.42
2018-03-12T07:45:00.191Z,32.63
2018-03-12T07:46:03.492Z,38.30
2018-03-12T07:47:06.785Z,35.20
2018-03-12T07:48:09.431Z,31.40
2018-03-12T07:49:11.897Z,30.45
2018-03-12T07:50:15.193Z,34.00
2018-03-12T07:51:18.495Z,34.50
2018-03-12T07:52:21.025Z,33.95
2018-03-12T07:53:24.354Z,27.00
2018-03-12T07:54:26.893Z,35.17
2018-03-12T07:55:30.214Z,25.23
2018-03-12T07:56:32.741Z,36.47
2018-03-12T07:57:36.041Z,23.52
2018-03-12T07:58:38.582Z,27.80
2018-03-12T07:59:41.905Z,29.95
2018-03-12T08:00:44.438Z,34.03
2018-03-12T08:01:47.746Z,38.20
2018-03-12T08:02:51.055Z,33.60
2018-03-12T08:03:53.590Z,30.67
2018-03-12T08:04:56.253Z,36.97
2018-03-12T08:05:58.772Z,35.13
2018-03-12T08:07:01.306Z,34.42
2018-03-12T08:08:03.837Z,31.55
2018-03-12T08:09:07.133Z,40.88
2018-03-12T08:10:09.740Z,35.15
2018-03-12T08:11:13.064Z,33.33
2018-03-12T08:12:16.362Z,33.13
2018-03-12T08:13:19.657Z,35.70
2018-03-12T08:14:22.189Z,30.58
2018-03-12T08:15:24.730Z,29.10
2018-03-12T08:16:27.355Z,28.90
2018-03-12T08:17:29.869Z,31.73
2018-03-12T08:18:32.386Z,30.45
2018-03-12T08:19:34.912Z,29.10
2018-03-12T08:20:37.440Z,26.98
2018-03-12T08:21:39.966Z,28.40
2018-03-12T08:22:43.296Z,29.33
2018-03-12T08:23:45.826Z,29.02
2018-03-12T08:24:49.177Z,25.08
2018-03-12T08:25:51.709Z,25.67
2018-03-12T08:26:54.280Z,27.58
2018-03-12T08:27:56.846Z,30.37
2018-03-12T08:28:59.366Z,27.20
2018-03-12T08:30:02.658Z,33.17
2018-03-12T08:31:05.950Z,28.80
2018-03-12T08:32:09.258Z,30.17
2018-03-12T08:33:11.818Z,24.90
2018-03-12T08:34:14.345Z,26.40
2018-03-12T08:35:17.644Z,28.60
2018-03-12T08:36:20.927Z,25.12
2018-03-12T08:37:23.472Z,25.45
2018-03-12T08:38:26.033Z,24.98
2018-03-12T08:39:28.561Z,24.25
2018-03-12T08:40:31.166Z,26.75
2018-03-12T08:41:33.706Z,25.62
2018-03-12T08:42:36.234Z,24.45
2018-03-12T08:43:38.769Z,24.25
2018-03-12T08:44:41.293Z,25.50
2018-03-12T08:45:43.868Z,21.02
2018-03-12T08:46:46.403Z,22.80
2018-03-12T08:47:48.935Z,22.95
2018-03-12T08:48:51.465Z,24.15
2018-03-12T08:49:54.000Z,25.35
2018-03-12T08:50:56.590Z,21.60
2018-03-12T08:51:59.120Z,21.23
2018-03-12T08:53:02.411Z,24.30
2018-03-12T08:54:04.944Z,23.20
2018-03-12T08:55:07.464Z,25.40
2018-03-12T08:56:10.046Z,25.17
2018-03-12T08:57:12.568Z,25.67
2018-03-12T08:58:15.857Z,22.52
2018-03-12T08:59:19.150Z,24.87
2018-03-12T09:00:21.681Z,20.95
2018-03-12T09:01:24.261Z,24.55
2018-03-12T09:02:27.560Z,23.75
2018-03-12T09:03:30.844Z,31.60
2018-03-12T09:04:33.377Z,22.25
2018-03-12T09:05:35.911Z,23.48
2018-03-12T09:06:38.481Z,24.45
2018-03-12T09:07:41.069Z,22.85
2018-03-12T09:08:43.540Z,19.45
2018-03-12T09:09:46.118Z,27.85
2018-03-12T09:10:48.627Z,26.40
2018-03-12T09:11:51.198Z,20.30
2018-03-12T09:12:53.725Z,20.85
2018-03-12T09:13:56.250Z,21.45
2018-03-12T09:14:58.777Z,15.43
2018-03-12T09:16:01.309Z,19.67
2018-03-12T09:17:04.662Z,20.12
2018-03-12T09:18:07.200Z,18.42
2018-03-12T09:19:09.728Z,18.00
2018-03-12T09:20:12.260Z,16.92
2018-03-12T09:21:14.788Z,11.48
2018-03-12T09:22:17.369Z,12.80
2018-03-12T09:23:19.894Z,16.30
2018-03-12T09:24:22.430Z,15.90
2018-03-12T09:25:25.062Z,14.65
2018-03-12T09:26:27.584Z,14.00
2018-03-12T09:27:30.165Z,13.45
2018-03-12T09:28:32.703Z,11.23
2018-03-12T09:29:35.229Z,11.93
2018-03-12T09:30:37.770Z,15.82
2018-03-12T09:31:41.062Z,19.95
2018-03-12T09:32:44.393Z,14.38
2018-03-12T09:33:46.932Z,14.07
2018-03-12T09:34:49.470Z,14.15
2018-03-12T09:35:52.770Z,12.82
2018-03-12T09:36:56.066Z,10.85
2018-03-12T09:37:58.630Z,11.32
2018-03-12T09:39:01.164Z,10.75
2018-03-12T09:40:04.519Z,11.07
2018-03-12T09:41:07.050Z,19.55
2018-03-12T09:42:09.586Z,16.02
2018-03-12T09:43:12.890Z,16.37
2018-03-12T09:44:15.417Z,15.65
2018-03-12T09:45:17.993Z,13.70
2018-03-12T09:46:20.516Z,17.77
2018-03-12T09:47:23.041Z,15.98
2018-03-12T09:48:26.331Z,15.05
2018-03-12T09:49:29.634Z,17.62
2018-03-12T09:50:32.197Z,14.63
2018-03-12T09:51:34.724Z,10.73
2018-03-12T09:52:37.270Z,16.98
2018-03-12T09:53:39.810Z,12.13
2018-03-12T09:54:42.341Z,12.30
2018-03-12T09:55:45.675Z,14.38
2018-03-12T09:56:48.206Z,18.70
2018-03-12T09:57:50.732Z,12.95
2018-03-12T09:58:53.267Z,12.68
2018-03-12T09:59:55.793Z,12.20
2018-03-12T10:00:59.112Z,11.55
2018-03-12T10:02:01.633Z,11.77
2018-03-12T10:03:04.925Z,11.38
2018-03-12T10:04:08.217Z,17.15
2018-03-12T10:05:10.749Z,11.48
2018-03-12T10:06:13.321Z,11.18
2018-03-12T10:07:15.848Z,10.65
2018-03-12T10:08:18.369Z,10.73
2018-03-12T10:09:21.668Z,10.55
2018-03-12T10:10:24.194Z,9.40
2018-03-12T10:11:26.760Z,10.85
2018-03-12T10:12:29.294Z,11.18
2018-03-12T10:13:31.816Z,10.27
2018-03-12T10:14:35.099Z,9.45
2018-03-12T10:15:37.617Z,10.65
2018-03-12T10:16:40.194Z,12.93
2018-03-12T10:17:42.721Z,11.75
2018-03-12T10:18:45.402Z,9.77
2018-03-12T10:19:47.922Z,11.40
2018-03-12T10:20:50.449Z,13.30
2018-03-12T10:21:53.019Z,10.15
2018-03-12T10:22:55.654Z,10.05
2018-03-12T10:23:58.178Z,10.77
2018-03-12T10:25:00.739Z,10.98
2018-03-12T10:26:03.265Z,10.55
2018-03-12T10:27:05.833Z,13.10
2018-03-12T10:28:08.364Z,10.45
2018-03-12T10:29:11.682Z,10.82
2018-03-12T10:30:14.194Z,9.70
2018-03-12T10:31:16.713Z,14.15
2018-03-12T10:32:19.269Z,12.37
2018-03-12T10:33:21.809Z,12.10
2018-03-12T10:34:25.114Z,13.02
2018-03-12T10:35:27.671Z,12.23
2018-03-12T10:36:30.977Z,10.30
2018-03-12T10:37:33.501Z,14.45
2018-03-12T10:38:36.066Z,10.70
2018-03-12T10:39:38.593Z,11.48
2018-03-12T10:40:41.110Z,9.13
2018-03-12T10:41:44.397Z,12.88
2018-03-12T10:42:47.693Z,13.48
2018-03-12T10:43:51.068Z,13.48
2018-03-12T10:44:54.361Z,12.70
2018-03-12T10:45:57.645Z,12.57
2018-03-12T10:47:00.934Z,12.52
2018-03-12T10:48:03.463Z,11.80
2018-03-12T10:49:06.034Z,13.13
2018-03-12T10:50:08.548Z,14.57
2018-03-12T10:51:11.084Z,14.90
2018-03-12T10:52:14.393Z,11.77
2018-03-12T10:53:16.914Z,13.93
2018-03-12T10:54:19.481Z,12.60
2018-03-12T10:55:22.012Z,12.43
2018-03-12T10:56:24.593Z,12.75
2018-03-12T10:57:27.876Z,14.30
2018-03-12T10:58:30.397Z,13.75
2018-03-12T10:59:32.923Z,17.33
2018-03-12T11:00:35.462Z,13.48
2018-03-12T11:01:40.818Z,15.88
2018-03-12T11:02:44.154Z,20.17
2018-03-12T11:03:46.688Z,17.02
2018-03-12T11:04:55.356Z,14.93
2018-03-12T11:06:02.966Z,18.62
2018-03-12T11:07:11.504Z,18.35
2018-03-12T11:08:14.801Z,16.08
2018-03-12T11:09:17.325Z,18.73
2018-03-12T11:10:19.995Z,14.75
2018-03-12T11:11:22.568Z,17.92
2018-03-12T11:12:25.093Z,16.73
2018-03-12T11:13:27.629Z,11.82
2018-03-12T11:14:30.921Z,14.55
2018-03-12T11:15:33.461Z,15.75
2018-03-12T11:16:36.785Z,17.37
2018-03-12T11:17:39.357Z,16.20
2018-03-12T11:18:41.891Z,17.17
2018-03-12T11:19:45.187Z,14.98
2018-03-12T11:20:47.713Z,16.20
2018-03-12T11:21:50.390Z,18.65
2018-03-12T11:22:52.979Z,15.43
2018-03-12T11:23:56.274Z,13.70
2018-03-12T11:24:58.810Z,14.65
2018-03-12T11:26:01.345Z,16.33
2018-03-12T11:27:03.909Z,14.70
2018-03-12T11:28:06.473Z,19.58
2018-03-12T11:29:09.006Z,23.85
2018-03-12T11:30:11.524Z,11.95
2018-03-12T11:31:14.049Z,14.60
2018-03-12T11:32:16.575Z,16.17
2018-03-12T11:33:19.917Z,13.90
2018-03-12T11:34:22.439Z,15.88
2018-03-12T11:35:25.734Z,17.45
2018-03-12T11:36:28.275Z,16.33
2018-03-12T11:37:30.800Z,16.02
2018-03-12T11:38:33.364Z,12.15
2018-03-12T11:39:35.890Z,14.80
2018-03-12T11:40:39.253Z,14.45
2018-03-12T11:41:41.773Z,14.02
2018-03-12T11:42:44.297Z,15.65
2018-03-12T11:43:47.598Z,20.23
2018-03-12T11:44:50.117Z,18.45
2018-03-12T11:45:52.703Z,19.00
2018-03-12T11:46:55.225Z,18.95
2018-03-12T11:47:57.761Z,15.55
2018-03-12T11:49:00.292Z,17.80
2018-03-12T11:50:02.821Z,15.50
2018-03-12T11:51:05.388Z,14.87
2018-03-12T11:52:07.914Z,16.37
2018-03-12T11:53:11.201Z,16.95
2018-03-12T11:54:14.486Z,15.07
2018-03-12T11:55:17.780Z,14.10
2018-03-12T11:56:20.360Z,15.52
2018-03-12T11:57:22.882Z,13.73
2018-03-12T11:58:25.409Z,15.75
2018-03-12T11:59:27.937Z,16.58
2018-03-12T12:00:31.233Z,17.95
2018-03-12T12:01:33.805Z,12.70
2018-03-12T12:02:36.329Z,15.00
2018-03-12T12:03:38.869Z,15.88
2018-03-12T12:04:41.446Z,14.00
2018-03-12T12:05:43.991Z,12.65
2018-03-12T12:06:46.520Z,16.00
2018-03-12T12:07:49.810Z,17.73
2018-03-12T12:08:52.347Z,14.27
2018-03-12T12:09:54.928Z,14.30
2018-03-12T12:10:57.451Z,16.60
2018-03-12T12:11:59.978Z,16.05
2018-03-12T12:13:02.521Z,26.27
2018-03-12T12:14:05.811Z,15.40
2018-03-12T12:15:09.144Z,17.05
2018-03-12T12:16:11.680Z,15.65
2018-03-12T12:17:14.207Z,16.48
2018-03-12T12:18:17.509Z,20.23
2018-03-12T12:19:20.804Z,20.12
2018-03-12T12:20:23.386Z,17.87
2018-03-12T12:21:25.914Z,18.40
2018-03-12T12:22:29.209Z,19.92
2018-03-12T12:23:32.492Z,16.08
2018-03-12T12:24:35.780Z,19.87
2018-03-12T12:25:39.114Z,19.75
2018-03-12T12:26:41.644Z,17.90
2018-03-12T12:27:44.173Z,18.40
2018-03-12T12:28:46.708Z,21.55
2018-03-12T12:29:49.235Z,19.45
2018-03-12T12:30:52.568Z,22.13
2018-03-12T12:31:55.094Z,19.02
2018-03-12T12:32:57.627Z,17.98
2018-03-12T12:34:00.154Z,19.52
2018-03-12T12:35:02.683Z,24.50
2018-03-12T12:36:06.032Z,19.37
2018-03-12T12:37:08.562Z,20.30
2018-03-12T12:38:11.101Z,20.83
2018-03-12T12:39:14.413Z,20.10
2018-03-12T12:40:16.941Z,25.15
2018-03-12T12:41:20.293Z,22.65
2018-03-12T12:42:22.812Z,21.12
2018-03-12T12:43:25.339Z,20.70
2018-03-12T12:44:27.873Z,19.35
2018-03-12T12:45:30.409Z,17.95
2018-03-12T12:46:32.981Z,17.60
2018-03-12T12:47:35.501Z,20.45
2018-03-12T12:48:38.074Z,22.55
2018-03-12T12:49:40.585Z,18.58
2018-03-12T12:50:43.115Z,22.42
2018-03-12T12:51:45.682Z,24.55
2018-03-12T12:52:48.980Z,18.92
2018-03-12T12:53:52.277Z,23.25
2018-03-12T12:54:54.885Z,19.98
2018-03-12T12:55:57.429Z,20.75
2018-03-12T12:57:00.001Z,20.60
2018-03-12T12:58:02.550Z,19.83
2018-03-12T12:59:05.081Z,18.92
2018-03-12T13:00:08.397Z,21.30
2018-03-12T13:01:10.953Z,20.20
2018-03-12T13:02:13.513Z,24.50
2018-03-12T13:03:16.804Z,20.23
2018-03-12T13:04:20.093Z,24.00
2018-03-12T13:05:22.666Z,22.17
2018-03-12T13:06:25.194Z,20.25
2018-03-12T13:07:27.713Z,20.58
2018-03-12T13:08:30.233Z,21.12
2018-03-12T13:09:32.753Z,21.83
2018-03-12T13:10:35.320Z,23.38
2018-03-12T13:11:37.857Z,21.10
2018-03-12T13:12:40.390Z,21.67
2018-03-12T13:13:42.918Z,21.27
2018-03-12T13:14:45.453Z,20.90
2018-03-12T13:15:48.026Z,20.77
2018-03-12T13:16:50.560Z,18.40
2018-03-12T13:17:53.894Z,20.48
2018-03-12T13:18:56.437Z,21.20
2018-03-12T13:19:58.971Z,17.20
2018-03-12T13:21:01.502Z,19.35
2018-03-12T13:22:04.062Z,19.55
2018-03-12T13:23:06.626Z,19.70
2018-03-12T13:24:09.165Z,23.23
2018-03-12T13:25:11.702Z,19.52
2018-03-12T13:26:14.229Z,25.02
2018-03-12T13:27:16.798Z,20.00
2018-03-12T13:28:19.328Z,17.50
2018-03-12T13:29:22.656Z,20.23
2018-03-12T13:30:25.197Z,22.35
2018-03-12T13:31:27.725Z,19.02
2018-03-12T13:32:30.253Z,22.05
2018-03-12T13:33:32.814Z,16.55
2018-03-12T13:34:35.338Z,18.75
2018-03-12T13:35:38.661Z,23.05
2018-03-12T13:36:41.225Z,19.08
2018-03-12T13:37:43.754Z,16.25